createdAt,value
2018-04-10T00:01:34.683Z,162491.17
2018-04-10T00:04:02.230Z,162482.64
2018-04-10T00:06:29.781Z,162455.77
2018-04-10T00:08:57.357Z,162419.72
2018-04-10T00:11:24.999Z,162428.25
2018-04-10T00:13:52.571Z,162440.70
2018-04-10T00:16:20.122Z,162431.52
2018-04-10T00:18:47.693Z,162457.08
2018-04-10T00:21:15.243Z,162450.50
2018-04-10T00:23:42.827Z,162409.22
2018-04-10T00:26:10.374Z,162381.05
2018-04-10T00:28:38.284Z,162409.88
2018-04-10T00:31:05.853Z,162419.06
2018-04-10T00:33:33.388Z,162461.00
2018-04-10T00:36:00.953Z,162456.42
2018-04-10T00:38:28.493Z,162430.86
2018-04-10T00:40:56.070Z,162467.56
2018-04-10T00:43:23.622Z,162455.77
2018-04-10T00:45:51.190Z,162460.34
2018-04-10T00:48:18.746Z,162394.81
2018-04-10T00:50:46.351Z,162422.33
2018-04-10T00:53:25.648Z,162403.30
2018-04-10T00:55:53.236Z,162408.56
2018-04-10T00:58:20.782Z,162381.05
2018-04-10T01:00:48.330Z,162314.83
2018-04-10T01:03:15.898Z,162275.53
2018-04-10T01:05:43.479Z,162278.14
2018-04-10T01:08:11.083Z,162257.86
2018-04-10T01:10:38.643Z,162234.22
2018-04-10T01:13:06.195Z,162182.44
2018-04-10T01:15:33.761Z,162134.59
2018-04-10T01:18:01.311Z,162157.53
2018-04-10T01:20:28.882Z,162109.72
2018-04-10T01:22:56.416Z,162123.52
2018-04-10T01:25:23.990Z,162113.03
2018-04-10T01:27:51.550Z,162154.28
2018-04-10T01:30:19.118Z,162075.70
2018-04-10T01:32:46.674Z,162031.16
2018-04-10T01:35:14.678Z,162018.06
2018-04-10T01:37:42.224Z,161987.91
2018-04-10T01:40:09.792Z,162054.08
2018-04-10T01:42:37.367Z,162078.31
2018-04-10T01:45:04.950Z,162045.55
2018-04-10T01:47:32.539Z,161982.69
2018-04-10T01:50:00.099Z,162000.34
2018-04-10T01:52:27.690Z,162075.05
2018-04-10T01:54:55.251Z,162045.55
2018-04-10T01:57:22.798Z,162016.75
2018-04-10T01:59:50.376Z,161989.92
2018-04-10T02:02:17.931Z,162042.28
2018-04-10T02:04:45.521Z,162030.50
2018-04-10T02:07:13.081Z,162034.41
2018-04-10T02:09:58.190Z,162021.97
2018-04-10T02:12:25.721Z,161997.75
2018-04-10T02:14:53.266Z,161994.47
2018-04-10T02:17:20.839Z,161978.13
2018-04-10T02:19:48.422Z,161987.91
2018-04-10T02:22:15.956Z,161976.12
2018-04-10T02:24:43.552Z,161975.47
2018-04-10T02:27:11.122Z,161959.12
2018-04-10T02:29:38.674Z,161963.69
2018-04-10T02:32:06.268Z,161997.09
2018-04-10T02:34:33.801Z,161997.75
2018-04-10T02:37:01.358Z,162016.09
2018-04-10T02:39:28.961Z,162041.64
2018-04-10T02:41:56.501Z,162067.17
2018-04-10T02:44:24.045Z,162051.47
2018-04-10T02:46:51.616Z,162061.25
2018-04-10T02:49:19.161Z,162020.02
2018-04-10T02:51:46.778Z,162092.06
2018-04-10T02:54:14.315Z,162090.75
2018-04-10T02:56:41.848Z,161986.61
2018-04-10T02:59:09.435Z,162012.78
2018-04-10T03:01:36.974Z,162010.19
2018-04-10T03:04:04.530Z,161991.22
2018-04-10T03:06:32.107Z,162006.92
2018-04-10T03:08:59.642Z,161897.58
2018-04-10T03:11:27.258Z,161875.92
2018-04-10T03:13:54.798Z,161950.59
2018-04-10T03:16:22.336Z,161939.45
2018-04-10T03:18:49.947Z,161933.59
2018-04-10T03:21:17.489Z,161851.05
2018-04-10T03:23:45.034Z,161817.66
2018-04-10T03:26:12.606Z,161827.48
2018-04-10T03:28:40.165Z,161797.41
2018-04-10T03:31:07.747Z,161789.53
2018-04-10T03:33:35.398Z,161783.66
2018-04-10T03:36:02.928Z,161826.17
2018-04-10T03:38:30.483Z,161832.09
2018-04-10T03:40:58.026Z,161784.97
2018-04-10T03:43:25.589Z,161896.28
2018-04-10T03:45:53.124Z,161852.34
2018-04-10T03:48:20.700Z,161836.00
2018-04-10T03:50:48.277Z,161820.97
2018-04-10T03:53:15.831Z,161805.22
2018-04-10T03:55:43.432Z,161807.22
2018-04-10T03:58:10.996Z,161811.12
2018-04-10T04:00:38.536Z,161786.92
2018-04-10T04:03:06.115Z,161755.48
2018-04-10T04:05:33.653Z,161760.75
2018-04-10T04:08:01.538Z,161755.48
2018-04-10T04:10:29.127Z,161754.83
2018-04-10T04:12:56.665Z,161756.14
2018-04-10T04:15:24.232Z,161726.06
2018-04-10T04:17:51.792Z,161782.36
2018-04-10T04:20:31.301Z,161781.70
2018-04-10T04:22:58.846Z,161770.58
2018-04-10T04:25:26.456Z,161716.89
2018-04-10T04:27:54.026Z,161690.06
2018-04-10T04:30:21.573Z,161777.75
2018-04-10T04:32:49.138Z,161822.92
2018-04-10T04:35:16.676Z,161728.02
2018-04-10T04:37:44.300Z,161679.59
2018-04-10T04:40:11.855Z,161661.30
2018-04-10T04:42:39.404Z,161671.72
2018-04-10T04:45:06.978Z,161685.50
2018-04-10T04:47:34.527Z,161664.56
2018-04-10T04:50:02.093Z,161636.44
2018-04-10T04:52:29.638Z,161611.59
2018-04-10T04:54:57.758Z,161604.38
2018-04-10T04:57:25.319Z,161611.59
2018-04-10T04:59:52.938Z,161612.89
2018-04-10T05:02:20.486Z,161657.98
2018-04-10T05:04:48.056Z,161777.09
2018-04-10T05:07:15.621Z,161809.19
2018-04-10T05:09:43.160Z,161838.61
2018-04-10T05:12:11.068Z,161844.53
2018-04-10T05:14:38.623Z,161776.44
2018-04-10T05:17:06.179Z,161727.36
2018-04-10T05:19:33.765Z,161741.09
2018-04-10T05:22:01.335Z,161783.66
2018-04-10T05:24:28.909Z,161765.97
2018-04-10T05:26:56.495Z,161765.31
2018-04-10T05:29:24.028Z,161775.78
2018-04-10T05:31:51.591Z,161790.83
2018-04-10T05:35:46.469Z,161879.28
2018-04-10T05:38:14.036Z,161851.05
2018-04-10T05:40:41.615Z,161836.66
2018-04-10T05:43:09.514Z,161983.34
2018-04-10T05:45:37.071Z,161938.16
2018-04-10T05:48:04.640Z,161942.11
2018-04-10T05:50:32.225Z,161951.25
2018-04-10T05:52:59.791Z,161922.45
2018-04-10T05:55:27.342Z,161972.20
2018-04-10T05:57:54.908Z,162032.45
2018-04-10T06:00:22.881Z,162011.48
2018-04-10T06:02:50.425Z,161985.95
2018-04-10T06:05:17.970Z,161985.30
2018-04-10T06:07:45.916Z,162166.72
2018-04-10T06:10:13.482Z,162200.14
2018-04-10T06:12:41.028Z,162234.22
2018-04-10T06:15:08.612Z,162215.20
2018-04-10T06:17:36.160Z,162310.91
2018-04-10T06:20:03.795Z,162371.86
2018-04-10T06:22:31.361Z,162506.25
2018-04-10T06:24:58.910Z,162584.95
2018-04-10T06:27:26.486Z,162575.16
2018-04-10T06:29:54.070Z,162512.12
2018-04-10T06:32:21.685Z,162571.19
2018-04-10T06:34:49.225Z,162548.84
2018-04-10T06:37:16.845Z,162683.97
2018-04-10T06:39:44.408Z,162651.88
2018-04-10T06:42:11.986Z,162558.69
2018-04-10T06:44:39.516Z,162622.33
2018-04-10T06:47:07.095Z,162609.22
2018-04-10T06:49:35.078Z,162517.39
2018-04-10T06:52:02.612Z,162630.88
2018-04-10T06:54:30.167Z,162641.38
2018-04-10T06:56:57.733Z,162817.80
2018-04-10T06:59:25.322Z,162869.06
2018-04-10T07:01:52.925Z,162902.50
2018-04-10T07:04:20.466Z,162779.09
2018-04-10T07:06:48.019Z,162933.36
2018-04-10T07:09:15.605Z,162942.56
2018-04-10T07:11:43.144Z,162786.98
2018-04-10T07:14:10.741Z,162820.47
2018-04-10T07:16:38.312Z,163004.91
2018-04-10T07:19:05.891Z,162985.84
2018-04-10T07:21:33.453Z,162998.33
2018-04-10T07:24:01.044Z,163046.91
2018-04-10T07:26:28.590Z,162945.19
2018-04-10T07:28:56.143Z,163029.20
2018-04-10T07:31:23.714Z,162924.81
2018-04-10T07:33:51.278Z,162970.77
2018-04-10T07:36:18.978Z,163061.98
2018-04-10T07:38:46.512Z,163169.06
2018-04-10T07:41:14.062Z,163106.00
2018-04-10T07:43:41.654Z,163084.31
2018-04-10T07:46:09.197Z,163137.53
2018-04-10T07:48:36.770Z,163159.86
2018-04-10T07:51:04.316Z,163159.86
2018-04-10T07:53:31.882Z,163173.69
2018-04-10T07:55:59.421Z,163312.25
2018-04-10T07:58:27.040Z,163400.97
2018-04-10T08:00:54.585Z,163340.48
2018-04-10T08:03:22.148Z,163414.77
2018-04-10T08:05:49.716Z,163248.55
2018-04-10T08:08:17.286Z,163243.27
2018-04-10T08:10:44.932Z,163208.45
2018-04-10T08:13:12.469Z,163397.00
2018-04-10T08:15:40.038Z,163269.53
2018-04-10T08:18:07.577Z,163210.47
2018-04-10T08:20:35.145Z,163335.91
2018-04-10T08:23:02.722Z,163523.84
2018-04-10T08:25:30.375Z,163399.66
2018-04-10T08:27:57.933Z,163494.94
2018-04-10T08:30:25.482Z,163379.88
2018-04-10T08:32:53.101Z,163481.16
2018-04-10T08:35:20.642Z,163621.11
2018-04-10T08:37:48.205Z,163622.42
2018-04-10T08:40:15.777Z,163645.48
2018-04-10T08:42:43.334Z,163555.41
2018-04-10T08:45:10.910Z,163432.53
2018-04-10T08:47:38.463Z,163500.83
2018-04-10T08:50:06.059Z,163441.03
2018-04-10T08:52:33.611Z,163450.91
2018-04-10T08:55:01.186Z,163453.52
2018-04-10T08:57:28.737Z,163381.23
2018-04-10T08:59:56.698Z,163390.41
2018-04-10T09:02:24.255Z,163577.77
2018-04-10T09:04:51.796Z,163467.36
2018-04-10T09:07:20.096Z,163454.88
2018-04-10T09:09:47.632Z,163523.19
2018-04-10T09:12:15.173Z,163650.06
2018-04-10T09:14:42.753Z,163675.09
2018-04-10T09:17:10.310Z,163563.27
2018-04-10T09:19:37.857Z,163656.00
2018-04-10T09:22:05.462Z,163625.69
2018-04-10T09:24:33.018Z,163661.91
2018-04-10T09:27:00.572Z,163687.59
2018-04-10T09:29:28.129Z,163863.78
2018-04-10T09:31:55.717Z,163713.87
2018-04-10T09:34:23.274Z,163663.27
2018-04-10T09:36:50.845Z,163604.69
2018-04-10T09:39:18.395Z,163643.47
2018-04-10T09:41:45.989Z,163672.42
2018-04-10T09:44:13.536Z,163694.78
2018-04-10T09:46:41.136Z,163673.08
2018-04-10T09:49:08.683Z,163756.58
2018-04-10T09:51:36.226Z,163662.56
2018-04-10T09:54:03.835Z,163596.14
2018-04-10T09:56:31.414Z,163623.73
2018-04-10T09:58:58.975Z,163559.33
2018-04-10T10:01:26.528Z,163658.63
2018-04-10T10:03:54.123Z,163681.64
2018-04-10T10:06:21.676Z,163665.22
2018-04-10T10:08:49.253Z,163689.55
2018-04-10T10:11:16.840Z,163679.03
2018-04-10T10:13:44.394Z,163753.97
2018-04-10T10:16:11.982Z,163670.47
2018-04-10T10:18:39.520Z,163804.59
2018-04-10T10:21:07.065Z,163899.34
2018-04-10T10:23:34.627Z,163776.98
2018-04-10T10:26:02.273Z,163763.19
2018-04-10T10:28:29.830Z,163840.09
2018-04-10T10:30:57.379Z,163763.19
2018-04-10T10:33:24.940Z,163828.92
2018-04-10T10:35:52.564Z,163832.19
2018-04-10T10:38:20.114Z,163878.23
2018-04-10T10:40:47.672Z,163897.39
2018-04-10T10:43:15.233Z,163871.03
2018-04-10T10:45:42.774Z,164019.73
2018-04-10T10:48:10.445Z,163912.50
2018-04-10T10:50:37.990Z,163949.33
2018-04-10T10:53:05.538Z,163958.56
2018-04-10T10:55:33.139Z,163890.78
2018-04-10T10:58:00.678Z,163936.84
2018-04-10T11:00:28.240Z,164019.73
2018-04-10T11:02:56.133Z,163923.69
2018-04-10T11:05:23.687Z,163998.67
2018-04-10T11:07:51.256Z,163951.95
2018-04-10T11:10:18.855Z,163969.09
2018-04-10T11:12:46.479Z,164096.70
2018-04-10T11:15:14.040Z,164148.72
2018-04-10T11:17:41.591Z,164116.52
2018-04-10T11:20:09.248Z,164077.59
2018-04-10T11:22:36.783Z,164078.91
2018-04-10T11:25:04.330Z,163990.11
2018-04-10T11:27:31.906Z,164096.70
2018-04-10T11:29:59.518Z,164094.73
2018-04-10T11:32:27.111Z,164172.41
2018-04-10T11:34:54.664Z,164134.25
2018-04-10T11:37:22.218Z,164067.11
2018-04-10T11:39:49.794Z,164091.45
2018-04-10T11:42:17.358Z,164080.27
2018-04-10T11:44:44.942Z,164072.36
2018-04-10T11:47:12.484Z,164028.91
2018-04-10T11:49:40.030Z,164136.22
2018-04-10T11:52:07.639Z,164144.78
2018-04-10T11:54:35.186Z,164088.13
2018-04-10T11:57:02.733Z,164112.53
2018-04-10T11:59:30.741Z,164076.94
2018-04-10T12:01:58.359Z,164118.47
2018-04-10T12:04:25.911Z,164150.69
2018-04-10T12:06:53.520Z,164140.86
2018-04-10T12:09:21.068Z,164150.69
2018-04-10T12:11:48.643Z,164224.39
2018-04-10T12:14:16.185Z,164247.44
2018-04-10T12:16:43.823Z,164130.98
2018-04-10T12:19:11.366Z,164147.41
2018-04-10T12:21:38.939Z,164125.69
2018-04-10T12:24:06.476Z,164159.91
2018-04-10T12:26:34.106Z,164182.95
2018-04-10T12:29:01.640Z,164263.28
2018-04-10T12:31:29.177Z,164276.44
2018-04-10T12:33:56.790Z,164263.94
2018-04-10T12:36:24.342Z,164341.62
2018-04-10T12:38:51.925Z,164338.36
2018-04-10T12:41:19.494Z,164311.28
2018-04-10T12:43:47.055Z,164316.58
2018-04-10T12:46:14.650Z,164262.56
2018-04-10T12:48:42.189Z,164242.19
2018-04-10T12:51:09.729Z,164208.61
2018-04-10T12:53:37.425Z,164293.53
2018-04-10T12:56:04.984Z,164343.61
2018-04-10T12:58:32.524Z,164386.42
2018-04-10T13:01:00.131Z,164344.91
2018-04-10T13:03:27.668Z,164347.53
2018-04-10T13:05:55.209Z,164294.19
2018-04-10T13:08:22.789Z,164375.22
2018-04-10T13:10:50.378Z,164346.22
2018-04-10T13:13:18.182Z,164383.09
2018-04-10T13:15:45.729Z,164313.95
2018-04-10T13:18:13.274Z,164303.41
2018-04-10T13:20:40.884Z,164283.64
2018-04-10T13:23:08.430Z,164374.56
2018-04-10T13:25:35.982Z,164336.34
2018-04-10T13:28:03.554Z,164421.94
2018-04-10T13:30:31.127Z,164423.30
2018-04-10T13:32:58.710Z,164348.19
2018-04-10T13:35:26.257Z,164405.48
2018-04-10T13:37:53.868Z,164443.02
2018-04-10T13:40:21.556Z,164527.31
2018-04-10T13:42:49.110Z,164477.27
2018-04-10T13:45:16.678Z,164510.88
2018-04-10T13:47:44.257Z,164491.09
2018-04-10T13:50:11.802Z,164412.09
2018-04-10T13:52:39.424Z,164381.78
2018-04-10T13:55:06.978Z,164425.25
2018-04-10T13:57:34.540Z,164413.41
2018-04-10T14:00:02.131Z,164415.37
2018-04-10T14:02:29.680Z,164342.28
2018-04-10T14:04:57.493Z,164393.63
2018-04-10T14:07:25.104Z,164381.13
2018-04-10T14:09:52.659Z,164448.97
2018-04-10T14:12:20.211Z,164421.28
2018-04-10T14:14:47.825Z,164433.78
2018-04-10T14:17:15.407Z,164417.34
2018-04-10T14:19:42.983Z,164354.80
2018-04-10T14:22:10.520Z,164379.81
2018-04-10T14:24:38.145Z,164366.00
2018-04-10T14:27:05.719Z,164347.53
2018-04-10T14:29:33.295Z,164357.42
2018-04-10T14:32:00.851Z,164402.20
2018-04-10T14:34:28.420Z,164394.28
2018-04-10T14:36:56.047Z,164381.13
2018-04-10T14:39:23.625Z,164389.70
2018-04-10T14:41:51.193Z,164421.94
2018-04-10T14:44:18.758Z,164504.91
2018-04-10T14:46:46.741Z,164412.75
2018-04-10T14:49:14.290Z,164453.56
2018-04-10T14:51:41.863Z,164480.55
2018-04-10T14:54:09.474Z,164444.98
2018-04-10T14:56:37.017Z,164465.41
2018-04-10T14:59:04.577Z,164458.16
2018-04-10T15:01:32.159Z,164458.16
2018-04-10T15:03:59.711Z,164479.23
2018-04-10T15:06:27.289Z,164458.81
2018-04-10T15:08:54.874Z,164395.59
2018-04-10T15:11:22.598Z,164395.59
2018-04-10T15:13:50.201Z,164414.06
2018-04-10T15:16:17.797Z,164414.72
2018-04-10T15:18:45.354Z,164436.47
2018-04-10T15:21:12.971Z,164448.97
2018-04-10T15:23:40.518Z,164461.47
2018-04-10T15:26:08.061Z,164464.09
2018-04-10T15:28:36.003Z,164463.44
2018-04-10T15:31:03.561Z,164485.84
2018-04-10T15:33:31.104Z,164500.31
2018-04-10T15:35:58.671Z,164490.44
2018-04-10T15:38:26.266Z,164462.78
2018-04-10T15:40:53.849Z,164447.66
2018-04-10T15:43:21.397Z,164439.73
2018-04-10T15:45:48.966Z,164463.44
2018-04-10T15:48:16.515Z,164474.64
2018-04-10T15:50:44.103Z,164456.84
2018-04-10T15:53:11.655Z,164489.78
2018-04-10T15:55:39.241Z,164497.70
2018-04-10T15:58:06.781Z,164473.34
2018-04-10T16:00:34.321Z,164443.67
2018-04-10T16:03:01.888Z,164447.66
2018-04-10T16:05:29.436Z,164456.84
2018-04-10T16:07:57.024Z,164464.09
2018-04-10T16:10:24.590Z,164438.42
2018-04-10T16:12:52.170Z,164398.28
2018-04-10T16:15:19.740Z,164403.53
2018-04-10T16:17:47.325Z,164385.77
2018-04-10T16:20:14.875Z,164391.02
2018-04-10T16:22:42.456Z,164366.00
2018-04-10T16:25:10.015Z,164373.20
2018-04-10T16:27:37.589Z,164395.59
2018-04-10T16:30:05.141Z,164387.08
2018-04-10T16:32:32.729Z,164352.83
2018-04-10T16:35:00.304Z,164393.63
2018-04-10T16:37:27.850Z,164389.05
2018-04-10T16:39:55.462Z,164367.97
2018-04-10T16:42:23.172Z,164383.09
2018-04-10T16:44:50.733Z,164400.25
2018-04-10T16:47:18.288Z,164379.81
2018-04-10T16:49:45.864Z,164368.63
2018-04-10T16:52:13.419Z,164366.66
2018-04-10T16:54:40.977Z,164360.70
2018-04-10T16:57:09.407Z,164349.55
2018-04-10T16:59:36.977Z,164335.03
2018-04-10T17:02:04.555Z,164332.41
2018-04-10T17:04:32.134Z,164348.19
2018-04-10T17:06:59.683Z,164378.50
2018-04-10T17:09:27.284Z,164390.36
2018-04-10T17:11:55.037Z,164375.88
2018-04-10T17:14:22.610Z,164377.84
2018-04-10T17:16:50.196Z,164366.00
2018-04-10T17:19:17.797Z,164368.63
2018-04-10T17:21:45.373Z,164378.50
2018-04-10T17:24:12.939Z,164342.95
2018-04-10T17:26:40.554Z,164361.41
2018-04-10T17:29:08.194Z,164342.28
2018-04-10T17:31:35.764Z,164290.25
2018-04-10T17:34:03.351Z,164246.78
2018-04-10T17:36:30.922Z,164237.56
2018-04-10T17:38:58.523Z,164242.84
2018-04-10T17:41:26.485Z,164246.13
2018-04-10T17:43:54.031Z,164217.84
2018-04-10T17:46:21.595Z,164199.39
2018-04-10T17:48:49.210Z,164154.02
2018-04-10T17:51:16.759Z,164108.59
2018-04-10T17:53:44.325Z,164066.41
2018-04-10T17:56:12.003Z,164044.08
2018-04-10T17:58:39.602Z,164021.05
2018-04-10T18:01:07.155Z,163996.05
2018-04-10T18:03:34.722Z,163979.56
2018-04-10T18:06:02.330Z,163948.03
2018-04-10T18:08:29.878Z,163900.66
2018-04-10T18:10:57.426Z,163884.23
2018-04-10T18:13:25.366Z,163847.36
2018-04-10T18:15:52.927Z,163817.73
2018-04-10T18:18:20.474Z,163773.72
2018-04-10T18:20:48.037Z,163740.81
2018-04-10T18:23:15.576Z,163735.53
2018-04-10T18:25:43.155Z,163708.58
2018-04-10T18:28:10.731Z,163685.56
2018-04-10T18:30:38.283Z,163668.50
2018-04-10T18:33:05.985Z,163658.63
2018-04-10T18:35:33.531Z,163638.23
2018-04-10T18:38:01.092Z,163600.72
2018-04-10T18:40:28.693Z,163583.00
2018-04-10T18:42:56.245Z,163558.03
2018-04-10T18:45:23.797Z,163515.28
2018-04-10T18:47:51.380Z,163490.97
2018-04-10T18:50:18.936Z,163466.00
2018-04-10T18:52:46.551Z,163424.63
2018-04-10T18:55:14.122Z,163410.19
2018-04-10T18:57:41.661Z,163405.55
2018-04-10T19:00:09.240Z,163379.88
2018-04-10T19:02:36.803Z,163362.81
2018-04-10T19:05:04.389Z,163335.25
2018-04-10T19:07:31.940Z,163333.28
2018-04-10T19:09:59.513Z,163311.59
2018-04-10T19:12:27.091Z,163285.98
2018-04-10T19:14:55.107Z,163269.53
2018-04-10T19:17:22.651Z,163247.25
2018-04-10T19:19:50.206Z,163230.78
2018-04-10T19:22:17.779Z,163208.45
2018-04-10T19:24:45.329Z,163181.55
2018-04-10T19:27:13.268Z,163178.27
2018-04-10T19:29:40.813Z,163168.41
2018-04-10T19:32:08.365Z,163134.86
2018-04-10T19:34:35.948Z,163116.50
2018-04-10T19:37:03.499Z,163096.14
2018-04-10T19:39:31.089Z,163065.31
2018-04-10T19:41:58.630Z,163052.83
2018-04-10T19:44:26.192Z,163033.78
2018-04-10T19:46:53.828Z,163016.06
2018-04-10T19:49:21.421Z,162993.09
2018-04-10T19:51:48.972Z,162961.56
2018-04-10T19:54:16.521Z,162933.36
2018-04-10T19:56:44.119Z,162914.31
2018-04-10T19:59:11.663Z,162890.69
2018-04-10T20:01:39.247Z,162863.78
2018-04-10T20:04:06.795Z,162853.23
2018-04-10T20:06:34.422Z,162835.53
2018-04-10T20:09:01.958Z,162818.45
2018-04-10T20:11:29.497Z,162777.78
2018-04-10T20:13:57.091Z,162770.59
2018-04-10T20:16:24.673Z,162746.33
2018-04-10T20:18:52.295Z,162732.52
2018-04-10T20:21:19.842Z,162716.78
2018-04-10T20:23:47.390Z,162685.33
2018-04-10T20:26:15.333Z,162664.98
2018-04-10T20:28:42.920Z,162647.95
2018-04-10T20:31:10.475Z,162620.38
2018-04-10T20:33:38.059Z,162595.45
2018-04-10T20:36:05.597Z,162581.03
2018-04-10T20:38:33.160Z,162557.37
2018-04-10T20:41:00.710Z,162533.77
2018-04-10T20:43:28.313Z,162510.81
2018-04-10T20:45:55.877Z,162489.87
2018-04-10T20:48:23.470Z,162462.95
2018-04-10T20:50:51.063Z,162454.47
2018-04-10T20:53:18.597Z,162451.16
2018-04-10T20:55:46.160Z,162440.70
2018-04-10T20:58:13.701Z,162430.86
2018-04-10T21:00:41.755Z,162407.27
2018-04-10T21:03:09.311Z,162398.72
2018-04-10T21:05:36.866Z,162373.17
2018-04-10T21:08:04.452Z,162349.56
2018-04-10T21:10:32.011Z,162341.03
2018-04-10T21:12:59.566Z,162322.06
2018-04-10T21:15:27.171Z,162312.22
2018-04-10T21:17:54.738Z,162293.91
2018-04-10T21:20:22.300Z,162276.83
2018-04-10T21:22:49.884Z,162252.59
2018-04-10T21:25:17.433Z,162235.53
2018-04-10T21:27:45.053Z,162232.22
2018-04-10T21:30:12.598Z,162210.63
2018-04-10T21:32:40.139Z,162188.34
2018-04-10T21:35:07.808Z,162175.25
2018-04-10T21:37:35.362Z,162152.31
2018-04-10T21:40:02.910Z,162146.39
2018-04-10T21:42:30.840Z,162125.47
2018-04-10T21:44:58.398Z,162113.69
2018-04-10T21:47:25.951Z,162100.58
2018-04-10T21:49:53.539Z,162085.48
2018-04-10T21:52:21.093Z,162064.56
2018-04-10T21:54:48.671Z,162056.69
2018-04-10T21:57:16.283Z,162044.89
2018-04-10T21:59:43.835Z,162022.63
2018-04-10T22:02:11.390Z,162016.09
2018-04-10T22:04:38.963Z,162008.22
2018-04-10T22:07:06.533Z,162003.00
2018-04-10T22:09:34.106Z,161976.12
2018-04-10T22:12:01.650Z,161963.03
2018-04-10T22:14:29.237Z,161938.80
2018-04-10T22:16:56.780Z,161927.67
2018-04-10T22:19:24.331Z,161911.97
2018-04-10T22:21:51.907Z,161897.58
2018-04-10T22:24:19.447Z,161891.72
2018-04-10T22:26:47.022Z,161883.84
2018-04-10T22:29:14.561Z,161876.56
2018-04-10T22:31:42.159Z,161864.12
2018-04-10T22:34:09.670Z,161855.66
2018-04-10T22:36:37.224Z,161843.88
2018-04-10T22:39:05.468Z,161828.78
2018-04-10T22:41:33.111Z,161805.88
2018-04-10T22:44:00.640Z,161793.44
2018-04-10T22:46:28.247Z,161790.17
2018-04-10T22:48:55.801Z,161774.48
2018-04-10T22:51:23.367Z,161805.22
2018-04-10T22:53:50.953Z,161803.25
2018-04-10T22:56:18.536Z,161784.97
2018-04-10T22:58:46.076Z,161779.05
2018-04-10T23:01:13.655Z,161836.00
2018-04-10T23:03:41.202Z,161812.44
2018-04-10T23:06:08.783Z,161803.25
2018-04-10T23:08:36.396Z,161806.56
2018-04-10T23:11:03.951Z,161858.92
2018-04-10T23:13:31.503Z,161835.34
2018-04-10T23:15:59.096Z,161902.14
2018-04-10T23:18:26.655Z,161907.41
2018-04-10T23:20:54.282Z,161889.06
2018-04-10T23:23:21.838Z,161864.78
2018-04-10T23:25:49.396Z,161927.02
2018-04-10T23:28:16.975Z,161906.11
2018-04-10T23:30:44.545Z,161925.06
2018-04-10T23:33:12.155Z,161906.11
2018-04-10T23:35:39.711Z,161884.50
2018-04-10T23:38:07.266Z,161875.92
2018-04-10T23:40:34.889Z,161855.00
2018-04-10T23:43:02.561Z,161876.56
2018-04-10T23:45:30.164Z,161868.75
2018-04-10T23:47:57.769Z,161841.22
2018-04-10T23:50:25.346Z,161824.88
2018-04-10T23:52:52.976Z,161813.73
2018-04-10T23:55:20.517Z,161791.47
2018-04-10T23:57:48.111Z,161803.92
